Flight Track Log - Related Links

Times and Time Zones

All times are in EST time to prevent confusion due to time zone crossing. See the N503LM flight status page for this flight to view local times or setup timezone preferences in your user account.

Time Position Orientation Groundspeed Altitude Reporting Facility
EST Latitude Longitude Course Direction KTS MPH feet Rate Location/Type
Tue 02:34:58 PM 29.9136 -93.9747 133° Southeast 172 198 2,700  Level Houston Center
Tue 02:36:00 PM 29.8586 -94.0094 209° Southwest 187 215 5,000 2,032 Climbing Houston Center
Tue 02:37:02 PM 29.8119 -94.0339 204° Southwest 187 215 6,900 1,694 Climbing Houston Center
Tue 02:38:04 PM 29.7633 -94.0622 207° Southwest 194 223 8,500 1,488 Climbing Houston Center
Tue 02:39:07 PM 29.7117 -94.0892 204° Southwest 202 232 10,000 1,632 Climbing Houston Center
Tue 02:40:09 PM 29.6569 -94.1161 203° Southwest 212 244 11,900 1,500 Climbing Houston Center
Tue 02:41:11 PM 29.6028 -94.1369 198° South 206 237 13,100 1,306 Climbing Houston Center
Tue 02:42:13 PM 29.5322 -94.1633 198° South 221 254 14,600 1,355 Climbing Houston Center
Tue 02:43:15 PM 29.4764 -94.1856 199° South 222 255 15,900 1,306 Climbing Houston Center
Tue 02:44:17 PM 29.4169 -94.2089 199° South 224 258 17,300 1,104 Climbing Houston Center
Tue 02:45:20 PM 29.3878 -94.2628 238° Southwest 215 247 18,200 816 Climbing Houston Center
Tue 02:46:22 PM 29.3683 -94.3394 254° West 211 243 19,000 387 Climbing Houston Center
Tue 02:47:24 PM 29.3453 -94.4158 251° West 247 284 19,000  Level Houston Center
Tue 02:48:26 PM 29.3214 -94.4967 251° West 264 304 19,000 242 Level Houston Center
Tue 02:49:28 PM 29.2967 -94.5794 251° West 266 306 19,500 484 Climbing Houston Center
Tue 02:50:30 PM 29.2744 -94.6514 251° West 252 290 20,000 240 Climbing Houston Center
Tue 02:51:33 PM 29.2508 -94.7303 251° West 260 299 20,000  Level Houston Center
Tue 02:52:35 PM 29.2217 -94.8272 251° West 267 307 20,000  Level Houston Center
Tue 02:53:37 PM 29.1964 -94.9081 250° West 270 311 20,000  Level Houston Center
Tue 02:54:39 PM 29.1719 -94.9900 251° West 271 312 20,000  Level Houston Center
Tue 02:55:41 PM 29.1353 -95.0667 241° Southwest 272 313 20,000  Level Houston Center
Tue 02:56:43 PM 29.0989 -95.1425 241° Southwest 272 313 20,000  Level Houston Center
Tue 02:57:45 PM 29.0639 -95.2194 243° Southwest 273 314 20,000  Level Houston Center
Tue 02:58:48 PM 29.0264 -95.2958 241° Southwest 274 315 20,000  Level Houston Center
Tue 02:59:50 PM 28.9825 -95.3872 241° Southwest 274 315 20,000  Level Houston Center
Tue 03:00:52 PM 28.9478 -95.4636 243° Southwest 272 313 20,000  Level Houston Center
Tue 03:01:54 PM 28.9114 -95.5394 241° Southwest 272 313 20,000  Level Houston Center
Tue 03:02:56 PM 28.8747 -95.6147 241° Southwest 271 312 20,000  Level Houston Center
Tue 03:03:58 PM 28.8394 -95.6906 242° Southwest 272 313 20,000  Level Houston Center
Tue 03:05:00 PM 28.8031 -95.7675 242° Southwest 274 315 20,000  Level Houston Center
Tue 03:06:03 PM 28.7581 -95.8589 241° Southwest 275 316 20,000 -48 Level Houston Center
Tue 03:07:05 PM 28.7219 -95.9369 242° Southwest 278 320 19,900 -339 Descending Houston Center
Tue 03:08:07 PM 28.6794 -96.0208 240° Southwest 287 330 19,300 -484 Descending Houston Center
Tue 03:09:09 PM 28.6419 -96.1011 242° Southwest 286 329 18,900 -387 Descending Houston Center
Tue 03:10:11 PM 28.6033 -96.1806 241° Southwest 287 330 18,500 -339 Descending Houston Center
Tue 03:11:13 PM 28.5661 -96.2592 242° Southwest 284 327 18,200 -192 Descending Houston Center
Tue 03:12:16 PM 28.5269 -96.3367 240° Southwest 283 326 18,100 -336 Descending Houston Center
Tue 03:13:18 PM 28.4806 -96.4325 241° Southwest 287 330 17,500 -1,065 Descending Houston Center
Tue 03:14:20 PM 28.4414 -96.5142 241° Southwest 294 338 15,900 -1,443 Descending Houston Center
Tue 03:14:37 PM 28.4319 -96.5331 240° Southwest 296 341 15,600 -1,452 Descending Houston Center
Tue 03:15:22 PM 28.4014 -96.5961 241° Southwest 296 341 14,400 -1,626 Descending Houston Center
Tue 03:16:24 PM 28.3625 -96.6736 240° Southwest 288 331 12,700 -1,754 Descending Houston Center
Tue 03:16:27 PM 28.3564 -96.6844 237° Southwest 282 325 12,500 -1,258 Descending Houston Center
Tue 03:17:26 PM 28.3189 -96.7469 236° Southwest 282 325 11,400 -1,300 Descending Houston Center
Tue 03:17:27 PM 28.3103 -96.7603 234° Southwest 278 320 11,200 -1,065 Descending Houston Center
Tue 03:18:28 PM 28.2772 -96.8197 238° Southwest 278 320 10,300 -1,065 Descending Houston Center
Tue 03:18:29 PM 28.2719 -96.8300 240° Southwest 277 319 10,100 -1,082 Descending Houston Center
Tue 03:19:29 PM 28.2278 -96.9053 236° Southwest 274 315 9,200 -871 Descending Houston Center
Tue 03:19:31 PM 28.2261 -96.9047 164° South 272 313 9,200 -875 Level Houston Center
Tue 03:20:17 PM 28.1942 -96.9622 238° Southwest 271 312 8,500 -871 Descending Houston Center
Tue 03:20:33 PM 28.1844 -96.9792 237° Southwest 273 314 8,300 -740 Descending Houston Center
Tue 03:21:30 PM 28.1467 -97.0475 238° Southwest 263 303 7,600 -677 Descending Houston Center
Tue 03:21:35 PM 28.1444 -97.0489 209° Southwest 261 300 7,600 -985 Level Houston Center
Tue 03:22:37 PM 28.1117 -97.1092 238° Southwest 240 276 6,500 -1,235 Descending Houston Center
Tue 03:22:43 PM 28.1044 -97.1200 233° Southwest 222 255 6,200 -1,750 Descending Houston Center
Tue 03:23:25 PM 28.0778 -97.1642 236° Southwest 223 257 5,100 -1,286 Descending Houston Center
Tue 03:23:39 PM 28.0756 -97.1669 228° Southwest 228 262 5,000 -885 Descending Houston Center
Tue 03:24:26 PM 28.0406 -97.2286 237° Southwest 259 298 4,200 -871 Descending Houston Center
Tue 03:24:41 PM 28.0372 -97.2356 241° Southwest 248 285 4,100 -806 Descending Houston Center
Tue 03:25:33 PM 27.9964 -97.3058 237° Southwest 264 304 3,300 -952 Descending Houston Center
Tue 03:25:44 PM 27.9886 -97.3175 233° Southwest 255 293 3,100 -295 Descending Houston Center
Tue 03:26:34 PM 27.9539 -97.3783 237° Southwest 267 307 3,000 -97 Descending Houston Center
Tue 03:26:46 PM 27.9467 -97.3889 232° Southwest 261 300 3,000  Level Houston Center
Tue 03:27:41 PM 27.9097 -97.4556 238° Southwest 257 296 3,000  Level Houston Center
Tue 03:27:48 PM 27.9067 -97.4578 213° Southwest 261 300 3,000 -783 Level Houston Center
Tue 03:28:50 PM 27.8644 -97.5300 237° Southwest 252 290 2,100 -677 Descending Houston Center
Tue 03:29:52 PM 27.8161 -97.5525 202° Southwest 207 238 1,600 -726 Descending Houston Center
Tue 03:30:54 PM 27.7914 -97.5289 140° Southeast 124 143 600 -624 Descending Houston Center
Tue 03:31:57 PM 27.7722 -97.5097 138° Southeast 115 132 300 -286 Descending Houston Center
Tue 03:33:00 PM 27.7667 -97.5000 204° Southwest  Level FlightAware Approximate

Login

Don't have an account? Register now (free) for customized features, flight alerts, and more!